Gulnare, Colorado
Current Conditions -  °F | °C
As of 9:54 AM on Thursday 30 Oct 2014 (Local Time) from KTAD Reporting Station
Clear Clear  
Wind Chill: 53°   Ceiling: Unl
Heat Index: 53°   Visibility: 10mi
Dew Point: 19°   Wind: 6mph
Humidity: 26%   Direction: 280°W
Pressure: 30.41"   Gusts: NA
Location:  37.32°N, 104.75°W
Report Text: KTAD 301554Z AUTO 28005KT 10SM CLR 12/M07 A3041 RMK AO2 SLP261 T01171072
Loading
Personal Weather Stations






























Interactive Weather Map
Tropical Storm Tracking
New forecast layout! Learn more

10-Day Weather Forecast

Advertisements
Track Severe Weather on mobile